createdAt,value
2018-02-19T00:01:55.995Z,228.13
2018-02-19T00:04:23.577Z,224.07
2018-02-19T00:06:51.127Z,221.83
2018-02-19T00:09:18.893Z,224.90
2018-02-19T00:11:46.618Z,242.07
2018-02-19T00:14:14.212Z,267.13
2018-02-19T00:16:41.803Z,278.73
2018-02-19T00:19:09.359Z,261.33
2018-02-19T00:21:36.965Z,236.37
2018-02-19T00:24:04.523Z,248.33
2018-02-19T00:26:32.083Z,248.97
2018-02-19T00:28:59.682Z,245.90
2018-02-19T00:31:27.224Z,273.87
2018-02-19T00:33:54.781Z,272.93
2018-02-19T00:36:22.374Z,274.90
2018-02-19T00:38:49.921Z,257.50
2018-02-19T00:41:17.678Z,257.47
2018-02-19T00:43:45.264Z,253.73
2018-02-19T00:46:12.807Z,246.83
2018-02-19T00:48:40.403Z,246.27
2018-02-19T00:51:07.994Z,244.30
2018-02-19T00:53:35.582Z,232.60
2018-02-19T00:56:03.139Z,244.07
2018-02-19T00:58:30.723Z,249.50
2018-02-19T01:00:58.311Z,230.77
2018-02-19T01:03:25.910Z,230.67
2018-02-19T01:05:53.454Z,234.53
2018-02-19T01:08:21.060Z,231.27
2018-02-19T01:10:48.659Z,229.17
2018-02-19T01:13:16.762Z,243.03
2018-02-19T01:15:45.124Z,228.63
2018-02-19T01:18:12.711Z,240.70
2018-02-19T01:20:40.296Z,251.77
2018-02-19T01:23:07.887Z,247.73
2018-02-19T01:25:35.430Z,259.47
2018-02-19T01:28:03.022Z,251.83
2018-02-19T01:30:30.570Z,239.40
2018-02-19T01:32:58.451Z,254.93
2018-02-19T01:35:26.390Z,243.17
2018-02-19T01:37:53.987Z,242.93
2018-02-19T01:40:22.045Z,256.47
2018-02-19T01:42:49.639Z,246.53
2018-02-19T01:45:17.174Z,245.43
2018-02-19T01:47:44.770Z,245.13
2018-02-19T01:50:16.202Z,250.70
2018-02-19T01:52:43.751Z,257.93
2018-02-19T01:55:11.334Z,255.43
2018-02-19T01:57:38.891Z,268.60
2018-02-19T02:00:06.471Z,256.47
2018-02-19T02:02:34.032Z,262.93
2018-02-19T02:05:01.963Z,256.33
2018-02-19T02:07:29.516Z,257.63
2018-02-19T02:09:57.110Z,256.97
2018-02-19T02:12:24.654Z,252.13
2018-02-19T02:14:52.463Z,252.20
2018-02-19T02:17:20.063Z,260.20
2018-02-19T02:19:47.610Z,262.37
2018-02-19T02:22:15.222Z,255.50
2018-02-19T02:24:42.822Z,263.83
2018-02-19T02:27:10.375Z,251.47
2018-02-19T02:29:37.928Z,252.90
2018-02-19T02:32:05.896Z,254.57
2018-02-19T02:34:33.435Z,250.77
2018-02-19T02:37:01.022Z,242.70
2018-02-19T02:39:28.576Z,248.63
2018-02-19T02:41:56.135Z,251.70
2018-02-19T02:44:23.733Z,243.67
2018-02-19T02:46:51.299Z,251.07
2018-02-19T02:49:18.894Z,252.53
2018-02-19T02:51:46.846Z,245.50
2018-02-19T02:54:14.390Z,234.63
2018-02-19T02:56:41.979Z,236.50
2018-02-19T02:59:09.551Z,228.37
2018-02-19T03:01:37.098Z,227.63
2018-02-19T03:04:04.690Z,239.13
2018-02-19T03:06:32.393Z,235.77
2018-02-19T03:08:59.944Z,234.13
2018-02-19T03:11:27.532Z,232.27
2018-02-19T03:13:55.118Z,211.80
2018-02-19T03:16:22.658Z,223.73
2018-02-19T03:18:50.316Z,238.07
2018-02-19T03:21:17.858Z,226.93
2018-02-19T03:23:45.408Z,230.60
2018-02-19T03:26:13.127Z,215.57
2018-02-19T03:28:40.719Z,218.67
2018-02-19T03:31:08.306Z,204.60
2018-02-19T03:33:35.851Z,205.57
2018-02-19T03:36:03.439Z,201.37
2018-02-19T03:38:31.032Z,194.70
2018-02-19T03:40:58.580Z,183.67
2018-02-19T03:43:26.164Z,178.27
2018-02-19T03:45:53.745Z,179.13
2018-02-19T03:48:21.286Z,173.03
2018-02-19T03:50:48.825Z,182.80
2018-02-19T03:53:16.401Z,178.33
2018-02-19T03:55:43.939Z,179.40
2018-02-19T03:58:11.525Z,169.00
2018-02-19T04:00:39.101Z,179.27
2018-02-19T04:03:06.638Z,179.80
2018-02-19T04:05:34.229Z,172.27
2018-02-19T04:08:01.767Z,176.80
2018-02-19T04:10:29.364Z,167.93
2018-02-19T04:12:56.935Z,180.10
2018-02-19T04:15:24.494Z,174.83
2018-02-19T04:17:52.030Z,184.57
2018-02-19T04:20:19.640Z,182.47
2018-02-19T04:22:47.259Z,174.83
2018-02-19T04:25:14.855Z,182.57
2018-02-19T04:27:43.393Z,186.07
2018-02-19T04:30:11.461Z,192.63
2018-02-19T04:32:39.130Z,180.17
2018-02-19T04:35:06.716Z,186.33
2018-02-19T04:37:34.255Z,178.63
2018-02-19T04:40:01.906Z,175.90
2018-02-19T04:42:29.669Z,182.63
2018-02-19T04:45:00.843Z,177.67
2018-02-19T04:47:28.383Z,173.70
2018-02-19T04:49:55.936Z,175.17
2018-02-19T04:52:23.532Z,196.27
2018-02-19T04:54:51.563Z,198.73
2018-02-19T04:57:19.142Z,183.77
2018-02-19T04:59:46.718Z,184.00
2018-02-19T05:02:14.258Z,184.13
2018-02-19T05:04:41.847Z,190.90
2018-02-19T05:07:09.434Z,203.60
2018-02-19T05:09:37.014Z,210.73
2018-02-19T05:12:04.598Z,213.77
2018-02-19T05:14:32.160Z,269.97
2018-02-19T05:16:59.747Z,228.27
2018-02-19T05:19:27.303Z,216.13
2018-02-19T05:21:54.882Z,194.83
2018-02-19T05:24:22.439Z,214.27
2018-02-19T05:26:50.024Z,195.67
2018-02-19T05:29:17.638Z,199.37
2018-02-19T05:31:45.897Z,191.97
2018-02-19T05:34:13.439Z,192.87
2018-02-19T05:36:41.050Z,195.53
2018-02-19T05:39:08.668Z,185.43
2018-02-19T05:41:36.325Z,195.00
2018-02-19T05:44:03.911Z,212.07
2018-02-19T05:46:32.607Z,220.10
2018-02-19T05:49:00.157Z,217.30
2018-02-19T05:51:27.752Z,229.27
2018-02-19T05:53:55.307Z,224.30
2018-02-19T05:56:22.889Z,223.85
2018-02-19T05:58:50.427Z,219.67
2018-02-19T06:01:18.811Z,224.93
2018-02-19T06:03:46.820Z,223.40
2018-02-19T06:06:14.599Z,224.73
2018-02-19T06:08:42.150Z,224.32
2018-02-19T06:11:10.301Z,221.10
2018-02-19T06:13:43.041Z,224.88
2018-02-19T06:16:10.640Z,217.90
2018-02-19T06:18:38.212Z,222.10
2018-02-19T06:21:05.836Z,231.63
2018-02-19T06:23:33.398Z,230.95
2018-02-19T06:26:00.986Z,227.75
2018-02-19T06:28:28.602Z,226.03
2018-02-19T06:30:56.201Z,236.93
2018-02-19T06:33:23.738Z,234.80
2018-02-19T06:35:51.326Z,211.33
2018-02-19T06:38:19.199Z,214.38
2018-02-19T06:40:46.752Z,202.90
2018-02-19T06:43:14.340Z,194.63
2018-02-19T06:45:41.948Z,203.53
2018-02-19T06:48:09.527Z,197.70
2018-02-19T06:50:37.081Z,197.02
2018-02-19T06:53:04.700Z,185.80
2018-02-19T06:55:32.340Z,190.13
2018-02-19T06:57:59.922Z,189.43
2018-02-19T07:00:27.474Z,190.47
2018-02-19T07:02:55.078Z,183.00
2018-02-19T07:05:22.655Z,179.00
2018-02-19T07:07:50.260Z,174.13
2018-02-19T07:10:17.855Z,171.80
2018-02-19T07:12:45.485Z,160.85
2018-02-19T07:15:13.151Z,142.03
2018-02-19T07:17:40.856Z,160.30
2018-02-19T07:20:08.422Z,153.18
2018-02-19T07:22:36.297Z,142.53
2018-02-19T07:25:04.043Z,148.55
2018-02-19T07:27:31.599Z,142.60
2018-02-19T07:29:59.712Z,138.75
2018-02-19T07:32:27.341Z,132.67
2018-02-19T07:34:54.981Z,131.63
2018-02-19T07:37:23.102Z,135.37
2018-02-19T07:39:50.684Z,130.00
2018-02-19T07:42:18.306Z,132.43
2018-02-19T07:44:45.956Z,135.67
2018-02-19T07:47:13.571Z,146.93
2018-02-19T07:49:41.224Z,158.50
2018-02-19T07:52:08.775Z,161.50
2018-02-19T07:54:36.419Z,156.83
2018-02-19T07:57:04.950Z,169.13
2018-02-19T07:59:32.511Z,176.55
2018-02-19T08:02:00.109Z,148.70
2018-02-19T08:04:28.676Z,171.75
2018-02-19T08:06:56.263Z,147.32
2018-02-19T08:09:23.802Z,177.03
2018-02-19T08:11:51.492Z,189.57
2018-02-19T08:14:19.555Z,163.95
2018-02-19T08:16:49.233Z,169.62
2018-02-19T08:19:17.199Z,151.93
2018-02-19T08:21:44.739Z,153.03
2018-02-19T08:24:12.346Z,157.57
2018-02-19T08:26:39.901Z,152.90
2018-02-19T08:29:07.487Z,148.30
2018-02-19T08:31:35.385Z,152.07
2018-02-19T08:34:03.040Z,151.93
2018-02-19T08:36:30.683Z,152.63
2018-02-19T08:38:58.344Z,158.40
2018-02-19T08:41:25.943Z,148.65
2018-02-19T08:43:53.500Z,148.50
2018-02-19T08:46:21.099Z,146.15
2018-02-19T08:48:48.718Z,142.80
2018-02-19T08:51:17.868Z,145.47
2018-02-19T08:53:45.643Z,146.57
2018-02-19T08:56:13.207Z,167.62
2018-02-19T08:58:40.813Z,158.83
2018-02-19T09:01:08.389Z,144.37
2018-02-19T09:03:36.242Z,159.23
2018-02-19T09:06:04.871Z,141.77
2018-02-19T09:08:32.483Z,142.37
2018-02-19T09:11:00.108Z,144.67
2018-02-19T09:13:28.872Z,145.32
2018-02-19T09:15:56.704Z,142.65
2018-02-19T09:18:24.680Z,133.03
2018-02-19T09:20:52.235Z,139.77
2018-02-19T09:23:19.834Z,129.20
2018-02-19T09:25:47.774Z,128.48
2018-02-19T09:28:15.364Z,112.77
2018-02-19T09:30:43.565Z,124.57
2018-02-19T09:33:11.180Z,120.97
2018-02-19T09:35:38.819Z,111.43
2018-02-19T09:38:06.402Z,117.47
2018-02-19T09:40:34.065Z,114.93
2018-02-19T09:43:01.624Z,107.15
2018-02-19T09:45:29.420Z,117.23
2018-02-19T09:47:56.978Z,121.80
2018-02-19T09:50:26.630Z,125.57
2018-02-19T09:52:54.547Z,130.93
2018-02-19T09:55:22.103Z,108.83
2018-02-19T09:57:49.769Z,128.43
2018-02-19T10:00:17.340Z,101.80
2018-02-19T10:02:44.948Z,124.77
2018-02-19T10:05:12.598Z,113.63
2018-02-19T10:07:40.256Z,97.83
2018-02-19T10:10:08.820Z,95.67
2018-02-19T10:12:36.419Z,101.47
2018-02-19T10:15:04.015Z,101.17
2018-02-19T10:17:31.554Z,90.27
2018-02-19T10:19:59.119Z,100.00
2018-02-19T10:22:26.716Z,92.43
2018-02-19T10:24:54.260Z,94.10
2018-02-19T10:27:22.620Z,84.73
2018-02-19T10:29:50.203Z,86.87
2018-02-19T10:32:17.741Z,77.20
2018-02-19T10:34:45.326Z,77.90
2018-02-19T10:37:12.930Z,78.20
2018-02-19T10:39:40.563Z,84.77
2018-02-19T10:42:08.218Z,78.40
2018-02-19T10:44:35.843Z,83.97
2018-02-19T10:47:03.409Z,73.00
2018-02-19T10:49:30.975Z,61.73
2018-02-19T10:51:58.573Z,64.37
2018-02-19T10:54:26.188Z,75.87
2018-02-19T10:56:53.795Z,64.78
2018-02-19T10:59:21.376Z,71.25
2018-02-19T11:01:48.925Z,70.60
2018-02-19T11:04:16.637Z,68.22
2018-02-19T11:06:44.390Z,71.40
2018-02-19T11:09:12.733Z,70.10
2018-02-19T11:11:40.332Z,70.63
2018-02-19T11:14:07.933Z,64.62
2018-02-19T11:16:35.479Z,65.70
2018-02-19T11:19:03.030Z,63.50
2018-02-19T11:21:30.612Z,61.88
2018-02-19T11:23:58.154Z,56.97
2018-02-19T11:26:26.580Z,60.80
2018-02-19T11:28:54.168Z,60.40
2018-02-19T11:31:22.570Z,61.87
2018-02-19T11:33:50.147Z,58.60
2018-02-19T11:36:17.708Z,58.97
2018-02-19T11:38:55.272Z,52.43
2018-02-19T11:41:13.062Z,59.60
2018-02-19T11:43:40.664Z,62.00
2018-02-19T11:46:08.346Z,52.27
2018-02-19T11:48:35.969Z,59.20
2018-02-19T11:51:04.256Z,60.40
2018-02-19T11:53:31.805Z,57.83
2018-02-19T11:55:59.403Z,57.53
2018-02-19T11:58:27.026Z,56.87
2018-02-19T12:00:54.625Z,50.17
2018-02-19T12:03:22.174Z,52.58
2018-02-19T12:05:50.287Z,52.10
2018-02-19T12:08:18.654Z,54.27
2018-02-19T12:10:46.235Z,44.83
2018-02-19T12:13:13.820Z,48.17
2018-02-19T12:15:42.677Z,48.37
2018-02-19T12:18:10.277Z,50.37
2018-02-19T12:20:38.668Z,53.07
2018-02-19T12:23:06.258Z,47.07
2018-02-19T12:25:34.087Z,54.13
2018-02-19T12:28:01.635Z,54.97
2018-02-19T12:30:29.215Z,55.30
2018-02-19T12:32:56.815Z,49.53
2018-02-19T12:35:24.416Z,50.37
2018-02-19T12:37:52.007Z,49.70
2018-02-19T12:40:19.833Z,50.60
2018-02-19T12:42:47.421Z,42.43
2018-02-19T12:45:15.625Z,39.17
2018-02-19T12:47:43.453Z,43.17
2018-02-19T12:50:11.627Z,47.17
2018-02-19T12:52:39.219Z,50.00
2018-02-19T12:55:06.789Z,51.55
2018-02-19T12:57:34.398Z,54.22
2018-02-19T13:00:01.939Z,57.17
2018-02-19T13:02:29.517Z,70.93
2018-02-19T13:04:58.038Z,60.63
2018-02-19T13:07:25.728Z,64.67
2018-02-19T13:09:53.619Z,55.93
2018-02-19T13:12:21.212Z,51.63
2018-02-19T13:14:48.762Z,60.17
2018-02-19T13:17:17.306Z,64.40
2018-02-19T13:19:44.868Z,64.80
2018-02-19T13:22:12.465Z,55.40
2018-02-19T13:24:40.051Z,58.60
2018-02-19T13:27:08.220Z,53.70
2018-02-19T13:29:35.818Z,65.45
2018-02-19T13:32:04.306Z,60.92
2018-02-19T13:34:31.921Z,57.57
2018-02-19T13:36:59.524Z,53.60
2018-02-19T13:39:27.124Z,60.45
2018-02-19T13:41:54.675Z,58.03
2018-02-19T13:44:22.227Z,64.00
2018-02-19T13:46:50.349Z,58.80
2018-02-19T13:49:18.924Z,59.13
2018-02-19T13:51:47.449Z,57.92
2018-02-19T13:54:15.890Z,60.57
2018-02-19T13:56:44.462Z,61.85
2018-02-19T13:59:13.146Z,55.63
2018-02-19T14:01:43.561Z,53.27
2018-02-19T14:04:14.008Z,56.17
2018-02-19T14:06:42.334Z,64.97
2018-02-19T14:09:11.572Z,56.30
2018-02-19T14:11:39.971Z,53.58
2018-02-19T14:14:08.316Z,46.03
2018-02-19T14:16:35.903Z,46.93
2018-02-19T14:19:04.463Z,47.10
2018-02-19T14:21:32.003Z,46.27
2018-02-19T14:23:59.578Z,51.90
2018-02-19T14:26:27.824Z,49.38
2018-02-19T14:28:55.443Z,47.78
2018-02-19T14:31:22.995Z,47.72
2018-02-19T14:33:51.302Z,55.70
2018-02-19T14:36:19.114Z,49.97
2018-02-19T14:38:47.384Z,56.53
2018-02-19T14:41:14.976Z,53.70
2018-02-19T14:43:42.530Z,65.67
2018-02-19T14:46:11.010Z,66.17
2018-02-19T14:48:38.661Z,66.67
2018-02-19T14:51:06.506Z,60.87
2018-02-19T14:53:34.336Z,58.37
2018-02-19T14:56:02.806Z,58.43
2018-02-19T14:58:31.160Z,57.87
2018-02-19T15:00:58.694Z,51.37
2018-02-19T15:03:26.872Z,60.70
2018-02-19T15:05:54.490Z,63.60
2018-02-19T15:08:23.012Z,69.50
2018-02-19T15:10:50.594Z,56.43
2018-02-19T15:13:18.171Z,56.37
2018-02-19T15:15:45.715Z,64.83
2018-02-19T15:18:13.770Z,75.10
2018-02-19T15:20:41.309Z,62.63
2018-02-19T15:23:09.910Z,74.63
2018-02-19T15:25:39.399Z,65.17
2018-02-19T15:28:07.996Z,74.80
2018-02-19T15:30:37.034Z,80.43
2018-02-19T15:33:04.594Z,95.50
2018-02-19T15:35:32.147Z,90.53
2018-02-19T15:37:59.878Z,105.03
2018-02-19T15:40:28.101Z,91.33
2018-02-19T15:42:57.178Z,104.30
2018-02-19T15:45:24.805Z,103.47
2018-02-19T15:47:57.162Z,114.87
2018-02-19T15:50:25.749Z,116.67
2018-02-19T15:52:54.432Z,111.20
2018-02-19T15:55:23.700Z,117.23
2018-02-19T15:57:52.162Z,104.30
2018-02-19T16:00:20.218Z,94.47
2018-02-19T16:02:48.639Z,90.43
2018-02-19T16:05:16.200Z,94.13
2018-02-19T16:07:43.800Z,94.00
2018-02-19T16:10:13.108Z,93.83
2018-02-19T16:12:41.698Z,92.80
2018-02-19T16:15:10.168Z,87.17
2018-02-19T16:17:37.920Z,83.73
2018-02-19T16:20:06.471Z,89.53
2018-02-19T16:22:34.483Z,76.57
2018-02-19T16:25:02.014Z,76.87
2018-02-19T16:27:30.644Z,79.63
2018-02-19T16:29:59.956Z,65.77
2018-02-19T16:32:28.491Z,61.13
2018-02-19T16:34:57.326Z,60.43
2018-02-19T16:37:25.069Z,60.90
2018-02-19T16:39:53.315Z,57.17
2018-02-19T16:42:21.716Z,60.77
2018-02-19T16:44:49.462Z,53.77
2018-02-19T16:47:17.087Z,62.13
2018-02-19T16:49:44.629Z,56.33
2018-02-19T16:52:12.946Z,57.80
2018-02-19T16:54:40.496Z,54.93
2018-02-19T16:57:08.222Z,54.20
2018-02-19T16:59:35.780Z,48.30
2018-02-19T17:02:05.584Z,49.73
2018-02-19T17:04:34.098Z,48.27
2018-02-19T17:07:02.732Z,48.37
2018-02-19T17:09:31.597Z,43.77
2018-02-19T17:12:00.118Z,44.07
2018-02-19T17:14:29.773Z,44.07
2018-02-19T17:16:57.548Z,43.03
2018-02-19T17:19:26.170Z,47.20
2018-02-19T17:21:53.730Z,42.63
2018-02-19T17:24:21.995Z,44.40
2018-02-19T17:26:49.598Z,40.17
2018-02-19T17:29:17.219Z,39.73
2018-02-19T17:31:46.943Z,40.43
2018-02-19T17:34:14.526Z,40.20
2018-02-19T17:36:42.123Z,40.30
2018-02-19T17:39:10.015Z,39.80
2018-02-19T17:41:37.619Z,39.60
2018-02-19T17:44:06.470Z,38.80
2018-02-19T17:46:34.572Z,39.07
2018-02-19T17:49:03.011Z,38.30
2018-02-19T17:51:32.299Z,38.83
2018-02-19T17:54:03.166Z,36.50
2018-02-19T17:56:31.561Z,35.60
2018-02-19T17:58:59.120Z,35.07
2018-02-19T18:01:28.636Z,30.40
2018-02-19T18:03:56.548Z,31.93
2018-02-19T18:06:24.277Z,35.10
2018-02-19T18:08:51.896Z,37.47
2018-02-19T18:11:19.504Z,34.10
2018-02-19T18:13:47.738Z,34.20
2018-02-19T18:16:15.333Z,30.97
2018-02-19T18:18:43.837Z,30.33
2018-02-19T18:21:12.347Z,37.47
2018-02-19T18:23:39.896Z,40.13
2018-02-19T18:26:08.382Z,39.60
2018-02-19T18:28:35.936Z,52.53
2018-02-19T18:31:03.531Z,55.33
2018-02-19T18:33:31.088Z,54.20
2018-02-19T18:35:58.738Z,54.83
2018-02-19T18:38:27.107Z,53.47
2018-02-19T18:40:54.956Z,62.37
2018-02-19T18:43:22.555Z,71.20
2018-02-19T18:45:50.160Z,61.60
2018-02-19T18:48:17.712Z,55.67
2018-02-19T18:50:46.390Z,62.43
2018-02-19T18:53:14.734Z,58.50
2018-02-19T18:55:43.595Z,63.07
2018-02-19T18:58:11.536Z,53.23
2018-02-19T19:00:39.087Z,82.53
2018-02-19T19:03:07.440Z,86.87
2018-02-19T19:05:35.284Z,80.23
2018-02-19T19:08:14.575Z,100.40
2018-02-19T19:10:45.806Z,128.73
2018-02-19T19:13:13.384Z,111.27
2018-02-19T19:15:40.979Z,118.03
2018-02-19T19:18:08.527Z,116.07
2018-02-19T19:20:36.130Z,103.97
2018-02-19T19:23:04.672Z,97.20
2018-02-19T19:25:32.261Z,83.73
2018-02-19T19:27:59.805Z,73.00
2018-02-19T19:30:27.420Z,68.37
2018-02-19T19:32:55.270Z,65.27
2018-02-19T19:35:23.315Z,66.67
2018-02-19T19:37:50.864Z,60.90
2018-02-19T19:40:18.465Z,60.57
2018-02-19T19:42:46.053Z,57.57
2018-02-19T19:45:13.610Z,48.57
2018-02-19T19:47:42.032Z,47.47
2018-02-19T19:50:10.278Z,45.90
2018-02-19T19:52:38.153Z,44.37
2018-02-19T19:55:05.738Z,39.37
2018-02-19T19:57:33.303Z,31.90
2018-02-19T20:00:00.903Z,44.80
2018-02-19T20:02:28.459Z,38.90
2018-02-19T20:04:57.210Z,31.13
2018-02-19T20:07:24.814Z,30.10
2018-02-19T20:09:52.361Z,31.47
2018-02-19T20:12:20.232Z,32.60
2018-02-19T20:14:48.610Z,28.03
2018-02-19T20:17:16.845Z,24.87
2018-02-19T20:19:44.441Z,25.20
2018-02-19T20:22:12.040Z,27.50
2018-02-19T20:24:40.006Z,23.63
2018-02-19T20:27:07.763Z,24.70
2018-02-19T20:29:35.369Z,21.93
2018-02-19T20:32:03.232Z,21.33
2018-02-19T20:34:30.885Z,23.07
2018-02-19T20:36:58.784Z,21.20
2018-02-19T20:39:28.565Z,23.47
2018-02-19T20:41:56.184Z,19.03
2018-02-19T20:44:24.558Z,20.50
2018-02-19T20:46:52.140Z,21.07
2018-02-19T20:49:19.688Z,16.60
2018-02-19T20:51:48.335Z,15.23
2018-02-19T20:54:16.855Z,17.30
2018-02-19T20:56:44.790Z,18.53
2018-02-19T20:59:13.293Z,15.63
2018-02-19T21:01:40.837Z,16.70
2018-02-19T21:04:09.205Z,14.80
2018-02-19T21:06:36.809Z,17.57
2018-02-19T21:09:05.396Z,15.37
2018-02-19T21:11:33.375Z,12.77
2018-02-19T21:14:03.408Z,14.10
2018-02-19T21:16:30.996Z,12.97
2018-02-19T21:18:58.595Z,15.10
2018-02-19T21:21:26.183Z,13.67
2018-02-19T21:23:54.154Z,12.97
2018-02-19T21:26:22.294Z,12.07
2018-02-19T21:28:49.962Z,13.70
2018-02-19T21:31:17.502Z,13.60
2018-02-19T21:33:45.102Z,11.40
2018-02-19T21:36:13.107Z,11.80
2018-02-19T21:38:41.683Z,12.77
2018-02-19T21:41:09.252Z,11.73
2018-02-19T21:43:36.830Z,11.80
2018-02-19T21:46:04.423Z,12.47
2018-02-19T21:48:32.026Z,10.90
2018-02-19T21:50:59.783Z,14.27
2018-02-19T21:53:28.236Z,10.67
2018-02-19T21:55:55.788Z,11.07
2018-02-19T21:58:23.376Z,11.90
2018-02-19T22:00:51.439Z,10.80
2018-02-19T22:03:18.971Z,10.80
2018-02-19T22:05:46.563Z,10.60
2018-02-19T22:08:14.856Z,12.47
2018-02-19T22:10:42.671Z,10.00
2018-02-19T22:13:10.395Z,9.70
2018-02-19T22:15:37.984Z,11.20
2018-02-19T22:18:05.539Z,10.40
2018-02-19T22:20:33.160Z,10.33
2018-02-19T22:23:00.701Z,10.73
2018-02-19T22:25:28.284Z,11.07
2018-02-19T22:27:55.824Z,9.27
2018-02-19T22:30:23.416Z,14.90
2018-02-19T22:32:50.959Z,10.33
2018-02-19T22:35:18.497Z,9.70
2018-02-19T22:37:46.053Z,11.63
2018-02-19T22:40:13.588Z,10.87
2018-02-19T22:42:41.272Z,11.57
2018-02-19T22:45:08.971Z,10.50
2018-02-19T22:47:36.509Z,9.57
2018-02-19T22:50:04.046Z,10.63
2018-02-19T22:52:31.623Z,11.70
2018-02-19T22:54:59.216Z,12.60
2018-02-19T22:57:26.848Z,10.43
2018-02-19T22:59:54.430Z,11.83
2018-02-19T23:02:21.967Z,12.57
2018-02-19T23:04:49.510Z,9.97
2018-02-19T23:07:17.100Z,11.90
2018-02-19T23:09:44.630Z,15.07
2018-02-19T23:12:12.208Z,11.70
2018-02-19T23:14:40.572Z,12.37
2018-02-19T23:17:08.115Z,13.83
2018-02-19T23:19:36.001Z,12.33
2018-02-19T23:22:03.562Z,12.40
2018-02-19T23:24:31.138Z,12.20
2018-02-19T23:26:58.927Z,14.40
2018-02-19T23:29:26.519Z,16.23
2018-02-19T23:31:54.050Z,15.17
2018-02-19T23:34:21.586Z,14.10
2018-02-19T23:36:49.140Z,14.93
2018-02-19T23:39:16.745Z,14.90
2018-02-19T23:41:44.284Z,16.63
2018-02-19T23:44:11.830Z,18.20
2018-02-19T23:47:13.713Z,17.80
2018-02-19T23:50:04.450Z,15.60
2018-02-19T23:52:44.334Z,17.60
2018-02-19T23:55:11.894Z,18.40
2018-02-19T23:57:54.868Z,15.30
